Aviation Digital Data Service (ADDS)

Output produced by METARs form (2036 UTC 17 June 2019)
found at http://www.aviationweather.gov/metar/data/
 
LFRN 172030Z AUTO 36005KT 330V030 CAVOK 20/14 Q1015 NOSIG
TAF LFRN 171700Z 1718/1818 VRB04KT CAVOK 
     PROB40 
     TEMPO 1806/1811 SHRA 
     PROB30 
     TEMPO 1806/1811 -TSRA SCT050CB 
     PROB40 
     TEMPO 1816/1818 VRB15G25KT TSRA BKN050CB